Time;durP1;ratioP1;P1;durP2;ratioP2;P2;SDS_P1;SDS_P2;PMS_P1;PMS_P2;Temp;Humidity;BMP_temperature;BMP_pressure;BME280_temperature;BME280_humidity;BME280_pressure;Samples;Min_cycle;Max_cycle;Signal;HPM_P1;HPM_P2
2022/09/28 00:01:59;;;;;;;8.45;5.65;;;10.20;99.90;;;;;;4955817;28;20477;-57
2022/09/28 00:04:25;;;;;;;8.05;5.85;;;10.10;99.90;;;;;;4955098;28;20043;-57
2022/09/28 00:06:51;;;;;;;7.93;5.22;;;9.90;99.90;;;;;;4955725;28;20042;-57
2022/09/28 00:09:16;;;;;;;9.27;5.85;;;10.10;99.90;;;;;;4955823;28;20511;-57
2022/09/28 00:11:42;;;;;;;8.15;6.32;;;10.10;99.90;;;;;;4952391;28;20085;-56
2022/09/28 00:14:09;;;;;;;6.85;6.15;;;10.00;99.90;;;;;;4958465;28;20031;-57
2022/09/28 00:16:42;;;;;;;8.65;6.70;;;10.00;99.90;;;;;;4954133;28;20043;-55
2022/09/28 00:19:09;;;;;;;8.10;5.85;;;9.80;99.90;;;;;;4956786;28;20043;-57
2022/09/28 00:21:37;;;;;;;7.03;6.32;;;9.90;99.90;;;;;;4961223;28;20046;-56
2022/09/28 00:24:14;;;;;;;6.65;5.88;;;9.60;99.90;;;;;;4951714;28;20593;-57
2022/09/28 00:26:49;;;;;;;6.07;5.28;;;9.50;99.90;;;;;;4961760;28;20439;-57
2022/09/28 00:29:15;;;;;;;7.38;5.82;;;9.30;99.90;;;;;;4957828;28;20546;-58
2022/09/28 00:31:41;;;;;;;5.90;5.30;;;9.30;99.90;;;;;;4953870;28;20133;-57
2022/09/28 00:34:07;;;;;;;8.15;5.43;;;9.20;99.90;;;;;;4954135;28;20034;-57
2022/09/28 00:36:33;;;;;;;7.45;6.10;;;9.20;99.90;;;;;;4959787;28;20221;-57
2022/09/28 00:39:06;;;;;;;7.45;6.00;;;9.30;99.90;;;;;;4954226;28;20550;-56
2022/09/28 00:41:33;;;;;;;8.13;6.53;;;9.30;99.90;;;;;;4950607;28;20113;-58
2022/09/28 00:44:23;;;;;;;8.43;5.72;;;9.10;99.90;;;;;;4955387;28;20043;-58
2022/09/28 00:46:57;;;;;;;8.85;5.80;;;9.10;99.90;;;;;;4959927;28;20051;-57
2022/09/28 00:49:39;;;;;;;6.72;6.05;;;9.00;99.90;;;;;;4960853;28;20038;-57
2022/09/28 00:52:08;;;;;;;8.02;6.40;;;9.10;99.90;;;;;;4959641;28;20031;-56
2022/09/28 00:54:35;;;;;;;6.97;6.03;;;9.10;99.90;;;;;;4953185;28;20424;-57
2022/09/28 00:57:02;;;;;;;7.72;6.43;;;9.00;99.90;;;;;;4953793;28;20590;-57
2022/09/28 00:59:30;;;;;;;7.93;5.88;;;9.00;99.90;;;;;;4954458;28;20031;-57
2022/09/28 01:01:55;;;;;;;8.45;6.45;;;9.00;99.90;;;;;;4953490;28;20042;-57
2022/09/28 01:04:22;;;;;;;8.05;5.93;;;9.10;99.90;;;;;;4958190;28;20038;-57
2022/09/28 01:06:50;;;;;;;9.90;6.53;;;9.20;99.90;;;;;;4952684;28;20382;-57
2022/09/28 01:09:18;;;;;;;14.45;7.40;;;9.20;99.90;;;;;;4960729;28;20530;-56
2022/09/28 01:11:43;;;;;;;9.07;6.63;;;9.20;99.90;;;;;;4951543;28;20034;-57
2022/09/28 01:14:13;;;;;;;7.82;6.97;;;9.30;99.90;;;;;;4951775;28;20035;-57
2022/09/28 01:16:51;;;;;;;9.50;7.57;;;9.50;99.90;;;;;;4957213;28;20046;-56
2022/09/28 01:19:56;;;;;;;9.52;7.97;;;9.60;99.90;;;;;;4954418;28;20023;-58
2022/09/28 01:22:33;;;;;;;10.02;7.47;;;9.70;99.90;;;;;;4948956;28;20755;-57
2022/09/28 01:25:24;;;;;;;11.32;8.15;;;9.70;99.90;;;;;;4950537;28;20458;-56
2022/09/28 01:27:56;;;;;;;10.57;8.02;;;9.70;99.90;;;;;;4957928;28;20744;-58
2022/09/28 01:30:22;;;;;;;11.25;8.05;;;9.60;99.90;;;;;;4960351;28;20043;-57
2022/09/28 01:33:07;;;;;;;11.98;8.88;;;9.70;99.90;;;;;;4958630;28;20520;-56
2022/09/28 01:35:39;;;;;;;11.30;8.73;;;9.70;99.90;;;;;;4958685;28;20616;-57
2022/09/28 01:38:07;;;;;;;12.75;10.93;;;9.70;99.90;;;;;;4959781;28;20459;-57
2022/09/28 01:40:35;;;;;;;16.38;11.35;;;9.70;99.90;;;;;;4957298;28;20034;-56
2022/09/28 01:43:05;;;;;;;14.15;11.35;;;9.70;99.90;;;;;;4957260;28;20121;-57
2022/09/28 01:45:44;;;;;;;16.25;11.07;;;9.70;99.90;;;;;;4952931;28;20030;-56
2022/09/28 01:48:13;;;;;;;14.30;11.15;;;9.70;99.90;;;;;;4956751;28;20054;-57
2022/09/28 01:50:40;;;;;;;14.43;12.00;;;9.80;99.90;;;;;;4959230;28;20035;-57
2022/09/28 01:53:24;;;;;;;14.48;12.10;;;9.70;99.90;;;;;;4957825;28;20042;-58
2022/09/28 01:55:54;;;;;;;14.07;11.30;;;9.80;99.90;;;;;;4959443;28;20399;-57
2022/09/28 01:59:02;;;;;;;17.30;12.13;;;9.80;99.90;;;;;;4960687;28;20523;-58
2022/09/28 02:01:39;;;;;;;13.70;11.70;;;9.70;99.90;;;;;;4863425;29;20470;-57
2022/09/28 02:04:11;;;;;;;14.90;11.45;;;9.80;99.90;;;;;;4863878;29;20041;-57
2022/09/28 02:06:44;;;;;;;15.13;11.32;;;9.60;99.90;;;;;;4919447;28;20064;-57
2022/09/28 02:09:15;;;;;;;15.32;12.13;;;9.70;99.90;;;;;;4956632;28;20034;-57
2022/09/28 02:11:47;;;;;;;13.38;11.98;;;9.80;99.90;;;;;;4956379;28;20396;-57
2022/09/28 02:14:16;;;;;;;13.20;11.07;;;9.80;99.90;;;;;;4954495;28;20042;-56
2022/09/28 02:16:50;;;;;;;14.45;12.15;;;9.80;99.90;;;;;;4959414;28;20608;-56
2022/09/28 02:19:22;;;;;;;14.70;11.40;;;9.80;99.90;;;;;;4957810;28;20037;-58
2022/09/28 02:22:03;;;;;;;20.67;11.65;;;9.80;99.90;;;;;;4959626;28;20491;-57
2022/09/28 02:25:08;;;;;;;15.02;12.00;;;9.90;99.90;;;;;;4956400;28;20030;-57
2022/09/28 02:28:13;;;;;;;16.45;11.88;;;9.80;99.90;;;;;;4957063;28;20035;-55
2022/09/28 02:30:42;;;;;;;15.48;11.90;;;9.90;99.90;;;;;;4904085;29;20044;-57
2022/09/28 02:33:14;;;;;;;15.20;11.88;;;9.80;99.90;;;;;;4905288;29;20722;-57
2022/09/28 02:35:42;;;;;;;15.40;12.30;;;9.80;99.90;;;;;;4924509;28;20451;-58
2022/09/28 02:38:09;;;;;;;16.40;13.23;;;9.90;99.90;;;;;;4961566;28;20034;-57
2022/09/28 02:40:36;;;;;;;18.10;11.52;;;9.90;99.90;;;;;;4958829;28;20695;-56
2022/09/28 02:43:22;;;;;;;15.48;12.43;;;9.90;99.90;;;;;;4956299;28;20031;-57
2022/09/28 02:46:09;;;;;;;15.98;11.68;;;9.80;99.90;;;;;;4956915;28;20502;-58
2022/09/28 02:48:43;;;;;;;14.70;11.55;;;9.70;99.90;;;;;;4955408;28;20043;-58
2022/09/28 02:51:27;;;;;;;14.43;11.65;;;9.70;99.90;;;;;;4953890;28;20113;-58
2022/09/28 02:54:16;;;;;;;19.02;12.88;;;9.80;99.90;;;;;;4952850;28;20050;-57
2022/09/28 02:57:09;;;;;;;18.80;13.70;;;9.80;99.90;;;;;;4954400;28;20031;-56
2022/09/28 02:59:59;;;;;;;13.82;10.50;;;9.80;99.90;;;;;;4953131;28;20031;-57
2022/09/28 03:02:54;;;;;;;18.60;13.18;;;9.70;99.90;;;;;;4956698;28;20520;-57
2022/09/28 03:05:41;;;;;;;17.50;14.00;;;9.70;99.90;;;;;;4953227;28;20066;-58
2022/09/28 03:08:19;;;;;;;16.05;14.27;;;9.60;99.90;;;;;;4959253;28;20134;-57
2022/09/28 03:11:01;;;;;;;19.45;14.85;;;9.60;99.90;;;;;;4957784;28;20394;-58
2022/09/28 03:13:28;;;;;;;17.90;14.05;;;9.60;99.90;;;;;;4953916;28;20059;-58
2022/09/28 03:16:15;;;;;;;22.80;15.95;;;9.70;99.90;;;;;;4959435;28;20754;-57
2022/09/28 03:18:41;;;;;;;19.90;15.35;;;9.80;99.90;;;;;;4956716;28;20452;-57
2022/09/28 03:21:10;;;;;;;19.08;15.15;;;9.80;99.90;;;;;;4952819;28;20529;-58
2022/09/28 03:23:36;;;;;;;23.55;16.35;;;9.70;99.90;;;;;;4955877;28;20047;-57
2022/09/28 03:26:02;;;;;;;22.50;16.08;;;9.70;99.90;;;;;;4958294;28;20057;-56
2022/09/28 03:28:28;;;;;;;21.02;17.10;;;9.60;99.90;;;;;;4951839;28;20228;-57
2022/09/28 03:30:54;;;;;;;23.88;16.70;;;9.70;99.90;;;;;;4956694;28;20030;-57
2022/09/28 03:33:21;;;;;;;20.88;17.45;;;9.70;99.90;;;;;;4958115;28;20035;-57
2022/09/28 03:35:49;;;;;;;25.10;16.55;;;9.80;99.90;;;;;;4957142;28;20177;-56
2022/09/28 03:38:15;;;;;;;23.42;17.42;;;9.80;99.90;;;;;;4955921;28;20038;-57
2022/09/28 03:40:41;;;;;;;21.25;17.70;;;9.70;99.90;;;;;;4954564;28;20074;-58
2022/09/28 03:43:07;;;;;;;24.95;18.60;;;9.70;99.90;;;;;;4959892;28;20058;-57
2022/09/28 03:45:32;;;;;;;23.88;18.40;;;9.80;99.90;;;;;;4958147;28;20030;-58
2022/09/28 03:47:59;;;;;;;27.40;21.45;;;9.80;99.90;;;;;;4958108;28;20082;-58
2022/09/28 03:50:24;;;;;;;25.05;20.30;;;9.80;99.90;;;;;;4960011;28;20027;-58
2022/09/28 03:52:50;;;;;;;26.88;20.35;;;9.80;99.90;;;;;;4956570;28;20388;-58
2022/09/28 03:55:15;;;;;;;26.02;21.02;;;9.70;99.90;;;;;;4954543;28;20436;-57
2022/09/28 03:57:41;;;;;;;26.45;20.98;;;9.70;99.90;;;;;;4959375;28;20594;-57
2022/09/28 04:00:08;;;;;;;27.92;22.05;;;9.80;99.90;;;;;;4956758;28;20724;-57
2022/09/28 04:02:33;;;;;;;31.98;21.65;;;9.80;99.90;;;;;;4960926;28;20066;-57
2022/09/28 04:04:59;;;;;;;28.98;22.55;;;9.80;99.90;;;;;;4953085;28;20124;-57
2022/09/28 04:07:25;;;;;;;31.13;21.95;;;9.90;99.90;;;;;;4956919;28;20035;-58
2022/09/28 04:09:50;;;;;;;34.45;24.30;;;10.00;99.90;;;;;;4951346;28;20043;-57
2022/09/28 04:12:16;;;;;;;31.60;25.13;;;10.10;99.90;;;;;;4953140;28;20053;-58
2022/09/28 04:14:41;;;;;;;32.40;25.10;;;10.10;99.90;;;;;;4952318;28;20038;-57
2022/09/28 04:17:07;;;;;;;30.30;24.48;;;10.10;99.90;;;;;;4955227;28;20157;-57
2022/09/28 04:19:33;;;;;;;33.13;24.92;;;10.00;99.90;;;;;;4951384;28;20150;-56
2022/09/28 04:22:00;;;;;;;31.42;22.67;;;9.90;99.90;;;;;;4958011;28;20031;-56
2022/09/28 04:24:25;;;;;;;31.98;25.58;;;9.80;99.90;;;;;;4955013;28;20179;-56
2022/09/28 04:26:51;;;;;;;31.70;24.23;;;9.80;99.90;;;;;;4948069;28;20046;-57
2022/09/28 04:29:17;;;;;;;30.42;24.10;;;9.80;99.90;;;;;;4951905;28;20584;-58
2022/09/28 04:31:47;;;;;;;32.72;25.23;;;9.70;99.90;;;;;;4956118;28;20035;-58
2022/09/28 04:34:16;;;;;;;28.95;23.55;;;9.70;99.90;;;;;;4956434;28;20046;-57
2022/09/28 04:36:45;;;;;;;30.98;23.80;;;9.70;99.90;;;;;;4952158;28;20031;-58
2022/09/28 04:39:11;;;;;;;32.05;22.65;;;9.70;99.90;;;;;;4955326;28;20445;-57
2022/09/28 04:41:37;;;;;;;29.90;23.80;;;9.70;99.90;;;;;;4953857;28;20426;-58
2022/09/28 04:44:03;;;;;;;32.60;24.33;;;9.70;99.90;;;;;;4955683;28;20522;-58
2022/09/28 04:46:28;;;;;;;29.55;23.42;;;9.70;99.90;;;;;;4951639;28;20050;-57
2022/09/28 04:48:54;;;;;;;32.15;23.35;;;9.70;99.90;;;;;;4953703;28;20641;-58
2022/09/28 04:51:20;;;;;;;30.85;23.48;;;9.70;99.90;;;;;;4951603;28;20039;-58
2022/09/28 04:53:45;;;;;;;28.48;23.35;;;9.70;99.90;;;;;;4956249;28;20046;-58
2022/09/28 04:56:13;;;;;;;28.10;23.23;;;9.70;99.90;;;;;;4953177;28;20030;-57
2022/09/28 04:58:40;;;;;;;29.33;23.75;;;9.60;99.90;;;;;;4959204;28;20038;-57
2022/09/28 05:01:09;;;;;;;26.38;22.73;;;9.70;99.90;;;;;;4951880;28;20533;-58
2022/09/28 05:03:35;;;;;;;27.77;22.85;;;9.70;99.90;;;;;;4955009;28;20039;-58
2022/09/28 05:06:00;;;;;;;30.48;23.08;;;9.70;99.90;;;;;;4956967;28;20513;-58
2022/09/28 05:08:26;;;;;;;29.63;22.23;;;9.60;99.90;;;;;;4958515;28;20042;-58
2022/09/28 05:10:59;;;;;;;28.13;23.05;;;9.70;99.90;;;;;;4955952;28;20034;-57
2022/09/28 05:13:25;;;;;;;;;;;9.60;99.90;;;;;;4954264;28;20047;-56
2022/09/28 05:15:53;;;;;;;27.65;21.88;;;9.70;99.90;;;;;;4959849;28;19921;-58
2022/09/28 05:18:18;;;;;;;30.35;22.48;;;9.80;99.90;;;;;;4957435;28;20089;-58
2022/09/28 05:20:44;;;;;;;27.88;22.25;;;9.70;99.90;;;;;;4954850;28;20452;-57
2022/09/28 05:23:11;;;;;;;28.63;22.88;;;9.70;99.90;;;;;;4959261;28;20042;-58
2022/09/28 05:25:38;;;;;;;30.13;23.13;;;9.60;99.90;;;;;;4955139;28;20053;-58
2022/09/28 05:28:04;;;;;;;29.73;23.27;;;9.70;99.90;;;;;;4951414;28;20126;-57
2022/09/28 05:30:30;;;;;;;29.77;22.15;;;9.80;99.90;;;;;;4957256;28;20540;-57
2022/09/28 05:32:55;;;;;;;28.35;21.40;;;9.70;99.90;;;;;;4955208;28;20115;-58
2022/09/28 05:35:21;;;;;;;27.50;22.52;;;9.90;99.90;;;;;;4952802;28;20042;-58
2022/09/28 05:37:47;;;;;;;29.15;20.85;;;9.90;99.90;;;;;;4957373;28;20026;-57
2022/09/28 05:40:13;;;;;;;28.10;21.67;;;10.00;99.90;;;;;;4956011;28;20078;-58
2022/09/28 05:42:39;;;;;;;27.73;20.50;;;9.90;99.90;;;;;;4958618;28;20043;-57
2022/09/28 05:45:05;;;;;;;28.63;21.05;;;10.00;99.90;;;;;;4958816;28;20441;-58
2022/09/28 05:47:37;;;;;;;25.40;20.50;;;9.90;99.90;;;;;;4964002;28;20051;-58
2022/09/28 05:50:03;;;;;;;27.55;19.75;;;10.10;99.90;;;;;;4958844;28;20101;-57
2022/09/28 05:52:29;;;;;;;27.73;19.98;;;10.10;99.90;;;;;;4959238;28;20082;-57
2022/09/28 05:54:54;;;;;;;27.17;19.90;;;10.00;99.90;;;;;;4958742;28;20530;-57
2022/09/28 05:57:20;;;;;;;26.92;20.45;;;10.00;99.90;;;;;;4959177;28;20359;-58
2022/09/28 05:59:46;;;;;;;30.65;19.75;;;9.90;99.90;;;;;;4956899;28;20473;-56
2022/09/28 06:02:11;;;;;;;26.98;20.85;;;10.00;99.90;;;;;;4960930;28;20039;-57
2022/09/28 06:04:37;;;;;;;23.08;19.17;;;10.10;99.90;;;;;;4958189;28;20130;-56
2022/09/28 06:07:02;;;;;;;27.02;18.73;;;9.90;99.90;;;;;;4956626;28;20049;-56
2022/09/28 06:09:28;;;;;;;24.65;19.70;;;9.90;99.90;;;;;;4957127;28;20059;-57
2022/09/28 06:11:54;;;;;;;22.05;17.35;;;10.00;99.90;;;;;;4960198;28;20125;-56
2022/09/28 06:14:19;;;;;;;25.67;17.85;;;9.80;99.90;;;;;;4959522;28;20420;-57
2022/09/28 06:16:45;;;;;;;22.73;17.55;;;9.80;99.90;;;;;;4961647;28;20522;-56
2022/09/28 06:19:11;;;;;;;25.30;18.23;;;9.90;99.90;;;;;;4960300;28;20110;-56
2022/09/28 06:21:37;;;;;;;24.25;18.05;;;9.90;99.90;;;;;;4956132;28;20045;-57
2022/09/28 06:24:03;;;;;;;27.10;18.17;;;10.00;99.90;;;;;;4956807;28;20439;-56
2022/09/28 06:26:29;;;;;;;27.50;18.30;;;10.00;99.90;;;;;;4954713;28;20519;-57
2022/09/28 06:28:55;;;;;;;21.58;16.35;;;10.10;99.90;;;;;;4956889;28;20122;-57
2022/09/28 06:31:23;;;;;;;23.38;16.42;;;10.00;99.90;;;;;;4957303;28;20043;-57
2022/09/28 06:33:49;;;;;;;21.05;16.98;;;9.90;99.90;;;;;;4959155;28;20089;-57
2022/09/28 06:36:15;;;;;;;22.23;17.65;;;9.80;99.90;;;;;;4954928;28;20046;-57
2022/09/28 06:38:41;;;;;;;25.23;17.15;;;10.00;99.90;;;;;;4958372;28;20479;-56
2022/09/28 06:41:08;;;;;;;23.30;16.23;;;10.00;99.90;;;;;;4957455;28;20031;-57
2022/09/28 06:43:34;;;;;;;19.85;15.73;;;9.90;99.90;;;;;;4956834;28;20487;-57
2022/09/28 06:46:00;;;;;;;21.05;16.10;;;9.90;99.90;;;;;;4957674;28;20038;-56
2022/09/28 06:48:26;;;;;;;20.15;15.63;;;10.00;99.90;;;;;;4959607;28;21314;-58
2022/09/28 06:50:52;;;;;;;23.42;15.95;;;9.90;99.90;;;;;;4955223;28;20055;-58
2022/09/28 06:53:18;;;;;;;22.45;15.70;;;10.00;99.90;;;;;;4955189;28;21416;-57
2022/09/28 06:55:47;;;;;;;18.65;14.00;;;10.10;99.90;;;;;;4955971;28;20043;-57
2022/09/28 06:58:18;;;;;;;21.77;14.25;;;9.90;99.90;;;;;;4955411;28;20022;-58
2022/09/28 07:00:46;;;;;;;18.77;13.68;;;9.90;99.90;;;;;;4955428;28;20085;-56
2022/09/28 07:03:19;;;;;;;15.90;12.70;;;9.90;99.90;;;;;;4956232;28;20074;-55
2022/09/28 07:05:46;;;;;;;;;;;9.80;99.90;;;;;;4952824;28;20121;-57
2022/09/28 07:08:12;;;;;;;16.80;11.15;;;9.50;99.90;;;;;;4956458;28;19988;-57
2022/09/28 07:10:43;;;;;;;15.02;11.90;;;9.70;99.90;;;;;;4954833;28;20031;-58
2022/09/28 07:13:08;;;;;;;15.02;11.75;;;9.80;99.90;;;;;;4955426;28;20439;-57
2022/09/28 07:15:35;;;;;;;17.08;11.68;;;10.00;99.90;;;;;;4956119;28;20046;-56
2022/09/28 07:18:02;;;;;;;14.70;11.15;;;10.10;99.90;;;;;;4959051;28;20148;-56
2022/09/28 07:20:29;;;;;;;17.52;12.00;;;10.10;99.90;;;;;;4951090;28;20054;-58
2022/09/28 07:22:55;;;;;;;16.05;11.25;;;10.20;99.90;;;;;;4952490;28;20510;-57
2022/09/28 07:25:22;;;;;;;16.20;10.35;;;10.30;99.90;;;;;;4957877;28;20534;-57
2022/09/28 07:27:48;;;;;;;20.25;11.43;;;10.00;99.90;;;;;;4954892;28;20031;-56
2022/09/28 07:30:14;;;;;;;17.98;11.32;;;10.20;99.90;;;;;;4956459;28;20115;-57
2022/09/28 07:32:40;;;;;;;13.88;10.50;;;10.20;99.90;;;;;;4955038;28;20101;-56
2022/09/28 07:35:08;;;;;;;16.13;10.50;;;10.30;99.90;;;;;;4960410;28;20479;-57
2022/09/28 07:37:35;;;;;;;16.27;11.45;;;10.30;99.90;;;;;;4956408;28;20031;-58
2022/09/28 07:42:49;;;;;;;15.73;9.95;;;10.30;99.90;;;;;;4953352;28;20049;-58
2022/09/28 07:45:14;;;;;;;15.70;9.93;;;10.30;99.90;;;;;;4957965;28;20038;-57
2022/09/28 07:47:40;;;;;;;13.07;9.77;;;10.40;99.90;;;;;;4955012;28;20034;-58
2022/09/28 07:50:06;;;;;;;15.80;10.32;;;10.40;99.90;;;;;;4955567;28;20043;-57
2022/09/28 07:52:34;;;;;;;13.30;10.65;;;10.60;99.90;;;;;;4958353;28;20078;-57
2022/09/28 07:55:00;;;;;;;13.30;9.90;;;10.40;99.90;;;;;;4958156;28;20035;-56
2022/09/28 07:57:27;;;;;;;14.38;10.55;;;10.20;99.90;;;;;;4953815;28;20085;-57
2022/09/28 07:59:53;;;;;;;13.73;10.30;;;10.40;99.90;;;;;;4962321;28;20106;-57
2022/09/28 08:02:19;;;;;;;16.17;10.25;;;10.50;99.90;;;;;;4957009;28;20172;-57
2022/09/28 08:04:46;;;;;;;14.88;10.63;;;10.60;99.90;;;;;;4948896;28;20546;-57
2022/09/28 08:07:14;;;;;;;15.65;10.93;;;10.50;99.90;;;;;;4954865;28;20042;-56
2022/09/28 08:09:41;;;;;;;15.27;11.43;;;10.70;99.90;;;;;;4953694;28;20046;-58
2022/09/28 08:12:06;;;;;;;20.80;10.90;;;11.00;99.90;;;;;;4954153;28;20103;-56
2022/09/28 08:14:33;;;;;;;13.32;10.27;;;11.00;99.90;;;;;;4952833;28;20051;-55
2022/09/28 08:16:59;;;;;;;14.65;10.27;;;10.90;99.90;;;;;;4953845;28;20509;-57
2022/09/28 08:21:43;;;;;;;17.20;11.02;;;10.90;99.90;;;;;;4955453;28;20681;-57
2022/09/28 08:22:11;;;;;;;14.43;11.05;;;11.00;99.90;;;;;;4952669;28;20030;-57
2022/09/28 08:24:37;;;;;;;15.05;11.07;;;11.10;99.90;;;;;;4954792;28;20799;-57
2022/09/28 08:27:02;;;;;;;15.90;11.07;;;11.10;99.90;;;;;;4953734;28;20729;-57
2022/09/28 08:29:30;;;;;;;18.35;11.32;;;11.20;99.90;;;;;;4955712;28;20035;-58
2022/09/28 08:31:58;;;;;;;15.65;11.23;;;11.20;99.90;;;;;;4955993;28;20529;-57
2022/09/28 08:34:26;;;;;;;13.02;9.68;;;11.20;99.90;;;;;;4957923;28;20038;-57
2022/09/28 08:36:52;;;;;;;13.45;10.00;;;11.00;99.90;;;;;;4956310;28;20031;-55
2022/09/28 08:39:17;;;;;;;14.38;10.85;;;11.00;99.90;;;;;;4953317;28;20031;-57
2022/09/28 08:42:12;;;;;;;17.40;10.75;;;11.00;99.90;;;;;;4953062;28;20046;-56
2022/09/28 08:44:50;;;;;;;15.07;10.27;;;10.90;99.90;;;;;;4951381;28;20531;-57
2022/09/28 08:50:24;;;;;;;14.05;11.50;;;11.10;99.90;;;;;;4952055;28;20094;-58
2022/09/28 08:52:55;;;;;;;17.17;10.40;;;11.10;99.90;;;;;;4955120;28;20444;-57
2022/09/28 08:55:31;;;;;;;15.43;11.00;;;11.10;99.90;;;;;;4952372;28;20118;-57
2022/09/28 08:58:10;;;;;;;15.90;11.18;;;11.20;99.90;;;;;;4954319;28;20038;-56
2022/09/28 09:00:39;;;;;;;18.67;12.57;;;11.40;99.90;;;;;;4953354;28;20458;-59
2022/09/28 09:03:08;;;;;;;18.17;12.77;;;11.60;99.90;;;;;;4953092;28;20129;-59
2022/09/28 09:06:12;;;;;;;17.90;11.70;;;11.60;99.90;;;;;;4954497;28;20051;-59
2022/09/28 09:08:59;;;;;;;;;;;11.40;99.90;;;;;;4961849;28;20035;-59
2022/09/28 09:12:04;;;;;;;16.30;10.60;;;11.40;99.90;;;;;;4957946;28;20002;-58
2022/09/28 09:15:01;;;;;;;;;;;11.70;99.90;;;;;;4960352;28;20035;-59
2022/09/28 09:17:55;;;;;;;15.20;10.65;;;11.70;99.90;;;;;;4924433;28;20472;-57
2022/09/28 09:20:47;;;;;;;12.73;9.25;;;11.70;99.90;;;;;;4953684;28;20047;-59
2022/09/28 09:23:42;;;;;;;12.20;9.32;;;11.50;99.90;;;;;;4956467;28;20399;-59
2022/09/28 09:26:16;;;;;;;13.50;10.90;;;11.60;99.90;;;;;;4956470;28;20028;-58
2022/09/28 09:29:01;;;;;;;12.88;9.80;;;11.70;99.90;;;;;;4960005;28;20496;-59
2022/09/28 09:31:55;;;;;;;11.35;9.18;;;11.90;99.90;;;;;;4955584;28;20035;-59
2022/09/28 09:34:32;;;;;;;8.60;7.43;;;12.00;99.90;;;;;;4956657;28;21078;-59
2022/09/28 09:37:20;;;;;;;12.90;9.45;;;11.90;99.90;;;;;;4954487;28;20039;-59
2022/09/28 09:40:06;;;;;;;8.95;6.97;;;12.10;99.90;;;;;;4962064;28;20798;-60
2022/09/28 09:43:00;;;;;;;8.93;7.65;;;12.00;99.90;;;;;;4956179;28;20062;-59
2022/09/28 09:45:53;;;;;;;11.82;8.10;;;12.00;99.90;;;;;;4954144;28;20047;-59
2022/09/28 09:48:53;;;;;;;9.20;5.93;;;12.10;99.90;;;;;;4955460;28;20208;-60
2022/09/28 09:51:48;;;;;;;9.73;6.55;;;12.10;99.90;;;;;;4929078;28;20089;-59
2022/09/28 09:54:28;;;;;;;12.88;9.05;;;11.90;99.90;;;;;;4947411;28;20599;-59
2022/09/28 09:57:02;;;;;;;11.13;7.68;;;12.00;99.90;;;;;;4953045;28;20673;-60
2022/09/28 09:59:35;;;;;;;9.65;6.53;;;12.10;99.90;;;;;;4953177;28;20113;-59
2022/09/28 10:02:08;;;;;;;8.38;6.78;;;12.20;99.90;;;;;;4958292;28;20491;-60
2022/09/28 10:04:36;;;;;;;;;;;12.40;99.90;;;;;;4953454;28;20122;-60
2022/09/28 10:07:08;;;;;;;13.13;6.80;;;12.60;99.90;;;;;;4954195;28;19992;-60
2022/09/28 10:09:41;;;;;;;8.77;6.38;;;12.70;99.90;;;;;;4959207;28;20039;-60
2022/09/28 10:12:07;;;;;;;;;;;12.70;99.90;;;;;;4952412;28;20104;-59
2022/09/28 10:14:34;;;;;;;10.23;6.78;;;12.70;99.90;;;;;;4958107;28;20004;-57
2022/09/28 10:17:02;;;;;;;43.30;31.17;;;12.70;99.90;;;;;;4960038;28;20054;-58
2022/09/28 10:19:31;;;;;;;11.65;5.53;;;12.60;99.90;;;;;;4953827;28;20042;-60
2022/09/28 10:22:01;;;;;;;8.60;4.63;;;12.60;99.90;;;;;;4955985;28;20107;-60
2022/09/28 10:24:31;;;;;;;8.57;5.25;;;12.40;99.90;;;;;;4952749;28;20620;-58
2022/09/28 10:27:10;;;;;;;8.57;4.88;;;12.40;99.90;;;;;;4958697;28;20042;-60
2022/09/28 10:29:59;;;;;;;11.07;5.78;;;12.50;99.90;;;;;;4954055;28;20042;-60
2022/09/28 10:32:47;;;;;;;7.47;5.50;;;12.60;99.90;;;;;;4954869;28;20121;-60
2022/09/28 10:35:21;;;;;;;8.63;5.53;;;12.60;99.90;;;;;;4953023;28;20110;-59
2022/09/28 10:38:04;;;;;;;8.82;5.72;;;12.60;99.90;;;;;;4953507;28;20031;-59
2022/09/28 10:40:45;;;;;;;6.15;4.88;;;12.50;99.90;;;;;;4954450;28;20078;-60
2022/09/28 10:43:32;;;;;;;7.60;5.60;;;12.70;99.90;;;;;;4952422;28;20090;-60
2022/09/28 10:46:11;;;;;;;7.88;6.00;;;12.60;99.90;;;;;;4951388;28;20039;-60
2022/09/28 10:49:05;;;;;;;6.50;5.90;;;12.70;99.90;;;;;;4959700;28;20046;-60
2022/09/28 10:51:46;;;;;;;7.72;5.80;;;12.70;99.90;;;;;;4950599;28;20137;-60
2022/09/28 10:54:24;;;;;;;8.43;4.75;;;12.80;99.90;;;;;;4953200;28;20034;-60
2022/09/28 10:56:51;;;;;;;6.93;5.30;;;12.90;99.90;;;;;;4954472;28;20109;-60
2022/09/28 10:59:39;;;;;;;7.32;5.40;;;13.00;99.90;;;;;;4958111;28;20050;-59
2022/09/28 11:02:26;;;;;;;6.55;5.38;;;13.20;99.90;;;;;;4957370;28;20050;-60
2022/09/28 11:05:00;;;;;;;18.42;10.63;;;13.30;99.90;;;;;;4950191;28;20557;-60
2022/09/28 11:07:29;;;;;;;24.55;13.93;;;13.20;99.90;;;;;;4958773;28;20073;-60
2022/09/28 11:09:57;;;;;;;6.43;4.75;;;13.20;99.90;;;;;;4953928;28;20034;-60
2022/09/28 11:12:25;;;;;;;6.60;5.13;;;13.30;99.90;;;;;;4953887;28;20039;-59
2022/09/28 11:15:01;;;;;;;6.13;3.90;;;13.30;99.90;;;;;;4955953;28;20117;-60
2022/09/28 11:17:39;;;;;;;8.30;4.68;;;13.30;99.90;;;;;;4958153;28;20041;-60
2022/09/28 11:20:38;;;;;;;10.43;4.78;;;13.20;99.90;;;;;;4950530;28;20042;-60
2022/09/28 11:23:19;;;;;;;5.00;4.13;;;13.30;99.90;;;;;;4939402;28;20117;-59
2022/09/28 11:26:04;;;;;;;5.30;4.20;;;13.30;99.90;;;;;;4955052;28;20046;-60
2022/09/28 11:28:33;;;;;;;6.45;4.15;;;13.50;99.90;;;;;;4950337;28;20039;-60
2022/09/28 11:31:00;;;;;;;9.73;5.53;;;13.70;99.90;;;;;;4952008;28;20733;-60
2022/09/28 11:33:40;;;;;;;7.13;5.07;;;13.80;99.90;;;;;;4952195;28;20059;-59
2022/09/28 11:36:12;;;;;;;4.97;3.58;;;14.00;99.90;;;;;;4951294;28;20059;-60
2022/09/28 11:38:49;;;;;;;6.40;3.30;;;14.10;99.90;;;;;;4951009;28;21034;-61
2022/09/28 11:41:49;;;;;;;4.10;2.90;;;14.20;99.90;;;;;;4955707;28;20031;-60
2022/09/28 11:44:43;;;;;;;4.75;2.63;;;14.40;99.90;;;;;;4954059;28;20097;-60
2022/09/28 11:47:50;;;;;;;3.97;2.20;;;14.50;99.90;;;;;;4953158;28;20118;-60
2022/09/28 11:50:24;;;;;;;3.95;2.35;;;14.30;99.90;;;;;;4951315;28;20023;-60
2022/09/28 11:52:55;;;;;;;4.95;2.30;;;14.30;99.90;;;;;;4955819;28;20706;-59
2022/09/28 11:55:20;;;;;;;4.25;2.47;;;14.20;99.90;;;;;;4956152;28;20079;-60
2022/09/28 11:57:54;;;;;;;5.18;2.53;;;14.10;99.90;;;;;;4955779;28;20196;-60
2022/09/28 12:00:23;;;;;;;5.72;2.42;;;14.10;99.90;;;;;;4957145;28;20036;-60
2022/09/28 12:03:07;;;;;;;3.75;2.00;;;14.00;99.90;;;;;;4955130;28;20035;-60
2022/09/28 12:05:48;;;;;;;6.22;2.50;;;13.90;99.90;;;;;;4954327;28;20646;-60
2022/09/28 12:08:24;;;;;;;3.40;2.30;;;13.70;99.90;;;;;;4951653;28;20026;-60
2022/09/28 12:11:16;;;;;;;3.75;2.72;;;13.80;99.90;;;;;;4956300;28;20027;-60
2022/09/28 12:13:46;;;;;;;2.90;2.20;;;13.90;99.90;;;;;;4952838;28;20141;-60
2022/09/28 12:16:30;;;;;;;2.63;1.88;;;14.10;99.90;;;;;;4954971;28;20038;-60
2022/09/28 12:19:01;;;;;;;4.65;2.40;;;14.40;99.90;;;;;;4947681;28;20483;-60
2022/09/28 12:21:35;;;;;;;3.67;2.33;;;14.50;99.90;;;;;;4960946;28;20113;-60
2022/09/28 12:24:17;;;;;;;4.40;1.92;;;14.60;99.90;;;;;;4954980;28;20111;-60
2022/09/28 12:26:58;;;;;;;8.57;1.95;;;14.80;99.90;;;;;;4957164;28;20043;-60
2022/09/28 12:29:32;;;;;;;3.90;1.95;;;14.90;99.90;;;;;;4953133;28;20426;-60
2022/09/28 12:32:20;;;;;;;2.25;1.95;;;14.90;99.90;;;;;;4954345;28;20097;-60
2022/09/28 12:34:46;;;;;;;3.78;2.20;;;14.80;99.90;;;;;;4956172;28;20407;-60
2022/09/28 12:37:27;;;;;;;4.53;2.08;;;14.90;99.90;;;;;;4957082;28;20062;-60
2022/09/28 12:40:03;;;;;;;4.05;2.00;;;14.70;99.90;;;;;;4951326;28;20031;-61
2022/09/28 12:43:13;;;;;;;2.72;2.10;;;14.80;99.90;;;;;;4959927;28;20501;-60
2022/09/28 12:46:15;;;;;;;2.35;1.85;;;15.00;99.90;;;;;;4958822;28;20202;-60
2022/09/28 12:49:02;;;;;;;5.15;2.03;;;15.10;99.90;;;;;;4955711;28;20258;-60
2022/09/28 12:51:47;;;;;;;5.50;2.00;;;15.20;99.90;;;;;;4953682;28;20031;-60
2022/09/28 12:54:24;;;;;;;4.10;1.88;;;15.20;99.90;;;;;;4956753;28;20035;-60
2022/09/28 12:57:03;;;;;;;2.50;1.67;;;15.10;99.90;;;;;;4954210;28;20134;-60
2022/09/28 12:59:48;;;;;;;5.03;1.38;;;15.10;99.90;;;;;;4953927;28;20097;-60
2022/09/28 13:02:39;;;;;;;5.10;3.38;;;15.10;99.90;;;;;;4959424;28;20043;-60
2022/09/28 13:05:15;;;;;;;2.53;1.42;;;15.10;99.90;;;;;;4961912;28;20053;-61
2022/09/28 13:08:02;;;;;;;6.03;1.65;;;15.10;99.90;;;;;;4954607;28;20363;-60
2022/09/28 13:10:54;;;;;;;2.83;1.40;;;15.20;99.90;;;;;;4962899;28;20523;-61
2022/09/28 13:13:58;;;;;;;3.10;1.35;;;15.10;99.90;;;;;;4943912;28;20490;-60
2022/09/28 13:16:31;;;;;;;4.50;1.40;;;15.00;99.90;;;;;;4956468;28;20046;-60
2022/09/28 13:18:59;;;;;;;5.88;1.27;;;14.90;99.90;;;;;;4959020;28;20030;-60